createdAt,value
2023-04-29T00:02:13.375Z,100.00
2023-04-29T00:04:40.442Z,100.00
2023-04-29T00:07:07.560Z,100.00
2023-04-29T00:09:34.302Z,100.00
2023-04-29T00:12:02.453Z,100.00
2023-04-29T00:14:29.274Z,100.00
2023-04-29T00:16:56.123Z,100.00
2023-04-29T00:19:22.877Z,100.00
2023-04-29T00:21:49.708Z,100.00
2023-04-29T00:24:16.516Z,100.00
2023-04-29T00:26:43.584Z,100.00
2023-04-29T00:29:11.850Z,100.00
2023-04-29T00:31:38.726Z,100.00
2023-04-29T00:34:05.617Z,100.00
2023-04-29T00:36:32.545Z,100.00
2023-04-29T00:38:59.346Z,100.00
2023-04-29T00:41:26.314Z,100.00
2023-04-29T00:43:53.051Z,100.00
2023-04-29T00:46:21.324Z,100.00
2023-04-29T00:48:48.115Z,100.00
2023-04-29T00:51:16.637Z,100.00
2023-04-29T00:53:43.579Z,100.00
2023-04-29T00:56:10.656Z,100.00
2023-04-29T00:58:37.742Z,100.00
2023-04-29T01:01:04.850Z,100.00
2023-04-29T01:03:33.157Z,100.00
2023-04-29T01:06:09.185Z,100.00
2023-04-29T01:08:46.438Z,100.00
2023-04-29T01:11:16.106Z,100.00
2023-04-29T01:13:46.175Z,100.00
2023-04-29T01:16:21.472Z,100.00
2023-04-29T01:18:54.349Z,100.00
2023-04-29T01:21:21.529Z,100.00
2023-04-29T01:23:49.872Z,100.00
2023-04-29T01:26:16.647Z,100.00
2023-04-29T01:28:50.627Z,100.00
2023-04-29T01:31:22.595Z,100.00
2023-04-29T01:33:59.904Z,100.00
2023-04-29T01:36:36.930Z,100.00
2023-04-29T01:39:13.468Z,100.00
2023-04-29T01:41:44.356Z,100.00
2023-04-29T01:44:15.972Z,100.00
2023-04-29T01:46:44.522Z,100.00
2023-04-29T01:49:12.838Z,100.00
2023-04-29T01:51:39.646Z,100.00
2023-04-29T01:54:07.882Z,100.00
2023-04-29T01:56:34.659Z,100.00
2023-04-29T01:59:01.417Z,100.00
2023-04-29T02:01:28.200Z,100.00
2023-04-29T02:03:55.157Z,100.00
2023-04-29T02:06:22.073Z,100.00
2023-04-29T02:08:48.866Z,100.00
2023-04-29T02:11:16.976Z,100.00
2023-04-29T02:13:43.698Z,100.00
2023-04-29T02:16:12.153Z,100.00
2023-04-29T02:18:39.052Z,100.00
2023-04-29T02:21:05.872Z,100.00
2023-04-29T02:23:32.670Z,100.00
2023-04-29T02:25:59.574Z,100.00
2023-04-29T02:28:27.891Z,100.00
2023-04-29T02:30:54.717Z,100.00
2023-04-29T02:33:23.768Z,100.00
2023-04-29T02:35:50.702Z,100.00
2023-04-29T02:38:17.442Z,100.00
2023-04-29T02:40:45.005Z,100.00
2023-04-29T02:43:12.065Z,100.00
2023-04-29T02:45:40.449Z,100.00
2023-04-29T02:48:07.489Z,100.00
2023-04-29T02:50:34.550Z,100.00
2023-04-29T02:53:01.335Z,100.00
2023-04-29T02:55:28.091Z,100.00
2023-04-29T02:57:55.035Z,100.00
2023-04-29T03:00:22.050Z,100.00
2023-04-29T03:02:50.435Z,100.00
2023-04-29T03:05:17.307Z,100.00
2023-04-29T03:07:44.127Z,100.00
2023-04-29T03:10:10.850Z,100.00
2023-04-29T03:12:37.640Z,100.00
2023-04-29T03:15:05.658Z,100.00
2023-04-29T03:17:32.494Z,100.00
2023-04-29T03:20:00.667Z,100.00
2023-04-29T03:22:27.426Z,100.00
2023-04-29T03:24:54.200Z,100.00
2023-04-29T03:27:21.078Z,100.00
2023-04-29T03:29:47.803Z,100.00
2023-04-29T03:32:14.553Z,100.00
2023-04-29T03:34:41.287Z,100.00
2023-04-29T03:37:09.515Z,100.00
2023-04-29T03:39:36.240Z,100.00
2023-04-29T03:42:02.980Z,100.00
2023-04-29T03:44:29.798Z,100.00
2023-04-29T03:46:56.574Z,100.00
2023-04-29T03:49:23.321Z,100.00
2023-04-29T03:51:50.142Z,100.00
2023-04-29T03:54:18.405Z,100.00
2023-04-29T03:56:45.138Z,100.00
2023-04-29T03:59:11.868Z,100.00
2023-04-29T04:01:38.781Z,100.00
2023-04-29T04:04:05.843Z,100.00
2023-04-29T04:06:32.940Z,100.00
2023-04-29T04:08:59.844Z,100.00
2023-04-29T04:11:27.965Z,100.00
2023-04-29T04:13:54.796Z,100.00
2023-04-29T04:16:21.637Z,100.00
2023-04-29T04:18:48.386Z,100.00
2023-04-29T04:21:15.133Z,100.00
2023-04-29T04:23:41.865Z,100.00
2023-04-29T04:26:08.685Z,100.00
2023-04-29T04:28:36.874Z,100.00
2023-04-29T04:31:03.746Z,100.00
2023-04-29T04:33:30.495Z,100.00
2023-04-29T04:35:58.005Z,100.00
2023-04-29T04:38:24.788Z,100.00
2023-04-29T04:40:51.612Z,100.00
2023-04-29T04:43:18.343Z,100.00
2023-04-29T04:45:46.489Z,100.00
2023-04-29T04:48:13.324Z,100.00
2023-04-29T04:50:40.144Z,100.00
2023-04-29T04:53:06.972Z,100.00
2023-04-29T04:55:33.758Z,100.00
2023-04-29T04:58:00.586Z,100.00
2023-04-29T05:00:27.333Z,100.00
2023-04-29T05:02:55.951Z,100.00
2023-04-29T05:05:22.876Z,100.00
2023-04-29T05:07:49.594Z,100.00
2023-04-29T05:10:16.309Z,100.00
2023-04-29T05:12:43.028Z,100.00
2023-04-29T05:15:10.511Z,100.00
2023-04-29T05:17:37.400Z,100.00
2023-04-29T05:20:07.162Z,100.00
2023-04-29T05:22:34.054Z,100.00
2023-04-29T05:25:00.816Z,100.00
2023-04-29T05:27:27.587Z,100.00
2023-04-29T05:29:54.635Z,100.00
2023-04-29T05:32:21.786Z,100.00
2023-04-29T05:34:48.608Z,100.00
2023-04-29T05:37:17.395Z,100.00
2023-04-29T05:39:44.224Z,100.00
2023-04-29T05:42:11.028Z,100.00
2023-04-29T05:44:37.761Z,100.00
2023-04-29T05:47:04.532Z,100.00
2023-04-29T05:49:31.315Z,100.00
2023-04-29T05:51:58.277Z,100.00
2023-04-29T05:54:26.507Z,100.00
2023-04-29T05:56:53.308Z,100.00
2023-04-29T05:59:20.051Z,100.00
2023-04-29T06:01:46.858Z,100.00
2023-04-29T06:04:13.859Z,100.00
2023-04-29T06:06:41.977Z,100.00
2023-04-29T06:09:19.937Z,100.00
2023-04-29T06:11:55.132Z,100.00
2023-04-29T06:14:22.015Z,100.00
2023-04-29T06:16:49.111Z,100.00
2023-04-29T06:19:15.846Z,100.00
2023-04-29T06:21:42.735Z,100.00
2023-04-29T06:24:09.587Z,100.00
2023-04-29T06:26:36.418Z,100.00
2023-04-29T06:29:04.626Z,100.00
2023-04-29T06:31:31.452Z,100.00
2023-04-29T06:33:58.412Z,100.00
2023-04-29T06:36:25.353Z,100.00
2023-04-29T06:38:52.100Z,100.00
2023-04-29T06:41:18.899Z,100.00
2023-04-29T06:43:47.347Z,100.00
2023-04-29T06:46:16.907Z,100.00
2023-04-29T06:48:43.877Z,100.00
2023-04-29T06:51:10.666Z,100.00
2023-04-29T06:53:37.555Z,100.00
2023-04-29T06:56:04.856Z,100.00
2023-04-29T06:58:31.652Z,100.00
2023-04-29T07:00:58.500Z,100.00
2023-04-29T07:03:26.786Z,100.00
2023-04-29T07:05:53.677Z,99.49
2023-04-29T07:08:20.508Z,100.00
2023-04-29T07:10:54.125Z,100.00
2023-04-29T07:13:22.535Z,100.00
2023-04-29T07:15:49.348Z,100.00
2023-04-29T07:18:16.101Z,100.00
2023-04-29T07:20:44.488Z,100.00
2023-04-29T07:23:11.346Z,100.00
2023-04-29T07:25:38.179Z,100.00
2023-04-29T07:28:05.902Z,100.00
2023-04-29T07:30:33.300Z,98.95
2023-04-29T07:33:03.936Z,99.35
2023-04-29T07:35:57.778Z,100.00
2023-04-29T07:38:27.770Z,99.41
2023-04-29T07:40:54.608Z,99.92
2023-04-29T07:43:21.380Z,100.00
2023-04-29T07:46:08.796Z,100.00
2023-04-29T07:49:21.069Z,98.46
2023-04-29T07:52:36.958Z,96.72
2023-04-29T07:55:24.671Z,96.81
2023-04-29T07:57:53.987Z,97.35
2023-04-29T08:00:43.524Z,98.06
2023-04-29T08:06:28.833Z,95.79
2023-04-29T08:09:24.598Z,95.98
2023-04-29T08:11:51.952Z,93.80
2023-04-29T08:14:18.877Z,91.30
2023-04-29T08:16:45.634Z,92.33
2023-04-29T08:19:12.488Z,92.07
2023-04-29T08:21:39.551Z,92.35
2023-04-29T08:24:06.480Z,91.01
2023-04-29T08:26:34.731Z,89.18
2023-04-29T08:29:01.684Z,87.76
2023-04-29T08:31:28.816Z,87.10
2023-04-29T08:33:55.824Z,83.68
2023-04-29T08:36:22.724Z,83.69
2023-04-29T08:38:49.570Z,83.17
2023-04-29T08:41:16.346Z,79.56
2023-04-29T08:43:44.991Z,80.75
2023-04-29T08:46:12.355Z,81.21
2023-04-29T08:48:41.320Z,81.07
2023-04-29T08:51:11.917Z,79.25
2023-04-29T08:53:38.783Z,78.11
2023-04-29T08:56:13.420Z,74.85
2023-04-29T08:58:41.970Z,74.35
2023-04-29T09:01:10.501Z,73.15
2023-04-29T09:03:44.786Z,72.64
2023-04-29T09:06:12.570Z,71.09
2023-04-29T09:08:40.237Z,70.33
2023-04-29T09:11:09.109Z,69.28
2023-04-29T09:13:36.032Z,66.42
2023-04-29T09:16:02.921Z,66.91
2023-04-29T09:18:45.981Z,64.28
2023-04-29T09:21:22.186Z,63.19
2023-04-29T09:23:51.729Z,62.26
2023-04-29T09:26:19.339Z,62.04
2023-04-29T09:28:46.565Z,62.48
2023-04-29T09:31:14.164Z,62.20
2023-04-29T09:33:53.704Z,60.24
2023-04-29T09:36:38.106Z,61.46
2023-04-29T09:39:05.808Z,60.16
2023-04-29T09:41:33.078Z,61.66
2023-04-29T09:44:06.303Z,59.32
2023-04-29T09:46:33.450Z,58.50
2023-04-29T09:49:02.349Z,56.08
2023-04-29T09:51:29.117Z,56.62
2023-04-29T09:53:55.922Z,57.89
2023-04-29T09:56:22.677Z,54.33
2023-04-29T09:58:49.543Z,54.60
2023-04-29T10:01:17.066Z,51.53
2023-04-29T10:03:45.050Z,51.71
2023-04-29T10:06:14.304Z,50.83
2023-04-29T10:08:41.167Z,48.50
2023-04-29T10:11:08.021Z,48.46
2023-04-29T10:13:35.530Z,45.50
2023-04-29T10:16:11.382Z,44.93
2023-04-29T10:18:41.828Z,47.29
2023-04-29T10:21:09.259Z,46.17
2023-04-29T10:23:37.871Z,44.95
2023-04-29T10:26:07.526Z,44.08
2023-04-29T10:28:36.992Z,44.07
2023-04-29T10:31:05.574Z,43.20
2023-04-29T10:33:32.688Z,43.24
2023-04-29T10:36:00.131Z,43.47
2023-04-29T10:38:30.879Z,42.60
2023-04-29T10:41:03.043Z,40.93
2023-04-29T10:43:33.709Z,39.26
2023-04-29T10:46:23.320Z,38.76
2023-04-29T10:48:58.933Z,38.40
2023-04-29T10:51:31.722Z,37.29
2023-04-29T10:54:07.433Z,37.00
2023-04-29T10:56:41.701Z,36.48
2023-04-29T10:59:14.113Z,37.72
2023-04-29T11:01:43.336Z,39.88
2023-04-29T11:04:10.445Z,35.61
2023-04-29T11:06:42.431Z,34.90
2023-04-29T11:09:14.460Z,38.05
2023-04-29T11:11:47.600Z,35.33
2023-04-29T11:14:15.403Z,33.07
2023-04-29T11:16:49.366Z,35.42
2023-04-29T11:19:17.203Z,33.63
2023-04-29T11:21:45.851Z,35.98
2023-04-29T11:24:13.449Z,34.25
2023-04-29T11:26:40.408Z,34.63
2023-04-29T11:29:08.863Z,36.18
2023-04-29T11:31:35.795Z,33.18
2023-04-29T11:34:04.561Z,31.74
2023-04-29T11:36:32.322Z,31.73
2023-04-29T11:39:00.618Z,31.32
2023-04-29T11:41:27.895Z,32.62
2023-04-29T11:43:59.149Z,30.81
2023-04-29T11:46:31.592Z,32.50
2023-04-29T11:48:58.939Z,30.61
2023-04-29T11:51:25.835Z,32.29
2023-04-29T11:53:52.773Z,30.45
2023-04-29T11:56:22.008Z,31.66
2023-04-29T11:58:48.813Z,32.41
2023-04-29T12:01:15.731Z,31.43
2023-04-29T12:03:44.303Z,30.58
2023-04-29T12:06:13.695Z,32.61
2023-04-29T12:08:40.585Z,33.04
2023-04-29T12:11:08.026Z,29.75
2023-04-29T12:13:34.980Z,29.93
2023-04-29T12:16:02.481Z,30.75
2023-04-29T12:18:29.678Z,32.69
2023-04-29T12:20:57.928Z,30.70
2023-04-29T12:23:25.837Z,29.71
2023-04-29T12:25:54.913Z,31.95
2023-04-29T12:28:22.357Z,33.59
2023-04-29T12:30:50.394Z,33.66
2023-04-29T12:33:20.595Z,33.71
2023-04-29T12:35:48.050Z,32.63
2023-04-29T12:38:20.617Z,33.31
2023-04-29T12:40:47.634Z,35.01
2023-04-29T12:43:14.837Z,35.21
2023-04-29T12:45:41.582Z,34.83
2023-04-29T12:48:12.401Z,33.90
2023-04-29T12:50:49.985Z,38.46
2023-04-29T12:53:18.222Z,36.96
2023-04-29T12:55:44.983Z,36.56
2023-04-29T12:58:11.751Z,35.35
2023-04-29T13:00:38.631Z,36.48
2023-04-29T13:03:05.837Z,36.88
2023-04-29T13:05:32.887Z,39.36
2023-04-29T13:07:59.702Z,40.73
2023-04-29T13:10:28.142Z,39.70
2023-04-29T13:12:55.078Z,42.18
2023-04-29T13:15:21.789Z,42.64
2023-04-29T13:17:48.758Z,45.29
2023-04-29T13:20:15.583Z,41.49
2023-04-29T13:22:42.349Z,44.97
2023-04-29T13:25:09.980Z,46.32
2023-04-29T13:27:38.365Z,47.64
2023-04-29T13:30:06.012Z,51.50
2023-04-29T13:32:43.633Z,51.52
2023-04-29T13:35:12.906Z,51.44
2023-04-29T13:37:39.608Z,49.15
2023-04-29T13:40:08.258Z,48.83
2023-04-29T13:42:42.296Z,48.76
2023-04-29T13:45:16.372Z,47.47
2023-04-29T13:48:03.677Z,49.52
2023-04-29T13:56:23.418Z,49.13
2023-04-29T13:58:52.196Z,47.91
2023-04-29T14:01:37.869Z,49.76
2023-04-29T14:03:51.655Z,50.00
2023-04-29T14:06:18.693Z,48.13
2023-04-29T14:08:45.548Z,49.58
2023-04-29T14:11:12.302Z,47.83
2023-04-29T14:13:39.052Z,47.66
2023-04-29T14:16:08.592Z,47.70
2023-04-29T14:18:35.388Z,45.10
2023-04-29T14:21:02.137Z,46.15
2023-04-29T14:23:28.863Z,46.04
2023-04-29T14:26:06.198Z,45.79
2023-04-29T14:28:42.779Z,48.86
2023-04-29T14:31:11.084Z,50.27
2023-04-29T14:33:37.860Z,50.06
2023-04-29T14:36:05.306Z,52.10
2023-04-29T14:38:33.263Z,52.21
2023-04-29T14:41:00.000Z,50.27
2023-04-29T14:43:26.992Z,49.99
2023-04-29T14:45:53.847Z,50.77
2023-04-29T14:48:22.055Z,49.48
2023-04-29T14:50:49.368Z,49.34
2023-04-29T14:53:16.216Z,50.23
2023-04-29T14:55:43.243Z,50.08
2023-04-29T14:58:10.021Z,51.87
2023-04-29T15:00:36.794Z,53.87
2023-04-29T15:03:04.266Z,55.25
2023-04-29T15:05:32.704Z,55.31
2023-04-29T15:07:59.494Z,56.88
2023-04-29T15:10:26.423Z,54.75
2023-04-29T15:12:53.271Z,54.73
2023-04-29T15:15:20.282Z,54.71
2023-04-29T15:17:47.166Z,54.15
2023-04-29T15:20:14.043Z,57.29
2023-04-29T15:22:42.527Z,58.31
2023-04-29T15:25:09.991Z,58.56
2023-04-29T15:27:37.201Z,61.17
2023-04-29T15:30:04.612Z,61.18
2023-04-29T15:32:31.575Z,61.75
2023-04-29T15:34:59.232Z,61.70
2023-04-29T15:37:26.209Z,62.93
2023-04-29T15:39:54.567Z,66.30
2023-04-29T15:42:22.227Z,67.56
2023-04-29T15:44:50.152Z,67.00
2023-04-29T15:47:17.017Z,67.58
2023-04-29T15:49:44.028Z,67.32
2023-04-29T15:52:10.948Z,66.98
2023-04-29T15:54:37.772Z,67.45
2023-04-29T15:57:06.484Z,68.55
2023-04-29T15:59:33.257Z,67.80
2023-04-29T16:02:00.006Z,67.22
2023-04-29T16:04:26.802Z,68.39
2023-04-29T16:06:53.533Z,68.65
2023-04-29T16:09:20.343Z,67.26
2023-04-29T16:11:47.163Z,65.28
2023-04-29T16:14:15.368Z,65.37
2023-04-29T16:16:42.266Z,66.80
2023-04-29T16:19:09.501Z,67.78
2023-04-29T16:21:36.213Z,68.51
2023-04-29T16:24:03.128Z,69.28
2023-04-29T16:26:29.883Z,69.31
2023-04-29T16:28:56.693Z,69.74
2023-04-29T16:31:24.948Z,69.63
2023-04-29T16:33:51.805Z,70.54
2023-04-29T16:36:18.963Z,70.84
2023-04-29T16:38:46.416Z,72.31
2023-04-29T16:41:14.735Z,73.83
2023-04-29T16:43:42.066Z,74.98
2023-04-29T16:46:12.657Z,76.68
2023-04-29T16:48:43.333Z,76.87
2023-04-29T16:51:12.361Z,77.54
2023-04-29T16:53:45.673Z,77.21
2023-04-29T16:56:12.577Z,76.69
2023-04-29T16:58:39.300Z,74.60
2023-04-29T17:01:06.097Z,73.81
2023-04-29T17:03:33.017Z,75.87
2023-04-29T17:06:01.228Z,78.07
2023-04-29T17:08:28.150Z,77.17
2023-04-29T17:10:54.892Z,73.13
2023-04-29T17:13:21.646Z,75.25
2023-04-29T17:15:48.433Z,76.53
2023-04-29T17:18:15.290Z,79.40
2023-04-29T17:20:42.061Z,76.56
2023-04-29T17:23:10.225Z,77.75
2023-04-29T17:25:37.436Z,79.82
2023-04-29T17:28:04.763Z,82.04
2023-04-29T17:30:31.523Z,84.00
2023-04-29T17:32:58.374Z,85.42
2023-04-29T17:35:25.115Z,85.67
2023-04-29T17:37:51.967Z,86.28
2023-04-29T17:40:20.603Z,87.71
2023-04-29T17:42:47.392Z,89.56
2023-04-29T17:45:14.436Z,87.99
2023-04-29T17:47:41.304Z,88.23
2023-04-29T17:50:08.691Z,90.99
2023-04-29T17:52:36.659Z,91.04
2023-04-29T17:55:03.989Z,90.18
2023-04-29T17:57:32.146Z,91.01
2023-04-29T17:59:59.141Z,89.54
2023-04-29T18:02:26.004Z,82.07
2023-04-29T18:04:52.814Z,83.27
2023-04-29T18:07:19.604Z,81.18
2023-04-29T18:09:46.460Z,84.25
2023-04-29T18:12:13.328Z,82.10
2023-04-29T18:14:41.528Z,77.24
2023-04-29T18:17:08.509Z,79.12
2023-04-29T18:19:37.418Z,81.60
2023-04-29T18:22:04.145Z,83.08
2023-04-29T18:24:30.857Z,80.16
2023-04-29T18:26:57.686Z,82.07
2023-04-29T18:29:24.520Z,79.86
2023-04-29T18:31:52.678Z,82.23
2023-04-29T18:34:19.423Z,85.38
2023-04-29T18:36:47.280Z,81.82
2023-04-29T18:39:13.984Z,77.75
2023-04-29T18:41:40.812Z,79.78
2023-04-29T18:44:07.604Z,79.80
2023-04-29T18:46:34.625Z,80.30
2023-04-29T18:49:02.856Z,81.98
2023-04-29T18:51:29.666Z,84.24
2023-04-29T18:53:56.414Z,84.67
2023-04-29T18:56:23.238Z,85.11
2023-04-29T18:58:49.995Z,83.93
2023-04-29T19:01:16.730Z,83.19
2023-04-29T19:03:43.477Z,80.68
2023-04-29T19:06:11.690Z,82.20
2023-04-29T19:08:40.448Z,84.24
2023-04-29T19:11:08.380Z,82.69
2023-04-29T19:13:36.383Z,84.91
2023-04-29T19:16:04.503Z,86.96
2023-04-29T19:18:32.395Z,88.16
2023-04-29T19:21:01.110Z,88.47
2023-04-29T19:23:29.324Z,85.44
2023-04-29T19:25:56.105Z,83.26
2023-04-29T19:28:23.472Z,81.64
2023-04-29T19:30:50.295Z,83.15
2023-04-29T19:33:17.102Z,81.63
2023-04-29T19:35:43.987Z,80.14
2023-04-29T19:38:10.819Z,78.87
2023-04-29T19:40:39.024Z,77.35
2023-04-29T19:43:06.043Z,79.52
2023-04-29T19:45:32.838Z,79.56
2023-04-29T19:47:59.992Z,82.37
2023-04-29T19:50:26.872Z,81.43
2023-04-29T19:52:53.735Z,78.86
2023-04-29T19:55:20.650Z,79.62
2023-04-29T19:57:48.862Z,79.72
2023-04-29T20:00:15.630Z,80.92
2023-04-29T20:02:42.532Z,83.21
2023-04-29T20:05:09.466Z,84.93
2023-04-29T20:07:36.284Z,83.94
2023-04-29T20:10:03.263Z,83.29
2023-04-29T20:12:29.986Z,83.29
2023-04-29T20:14:58.128Z,83.22
2023-04-29T20:17:25.186Z,85.38
2023-04-29T20:19:52.273Z,85.85
2023-04-29T20:22:19.224Z,85.48
2023-04-29T20:24:45.969Z,85.53
2023-04-29T20:27:12.723Z,85.36
2023-04-29T20:29:39.542Z,84.29
2023-04-29T20:32:07.839Z,83.53
2023-04-29T20:34:34.733Z,83.44
2023-04-29T20:37:01.525Z,83.46
2023-04-29T20:39:28.568Z,81.34
2023-04-29T20:41:55.627Z,86.94
2023-04-29T20:44:22.640Z,86.32
2023-04-29T20:46:49.396Z,88.77
2023-04-29T20:49:17.602Z,85.63
2023-04-29T20:51:44.444Z,86.80
2023-04-29T20:54:11.179Z,88.21
2023-04-29T20:56:37.993Z,85.91
2023-04-29T20:59:04.865Z,85.04
2023-04-29T21:01:31.715Z,84.64
2023-04-29T21:03:58.533Z,85.00
2023-04-29T21:06:27.120Z,84.30
2023-04-29T21:08:54.133Z,83.10
2023-04-29T21:11:20.899Z,81.81
2023-04-29T21:13:47.648Z,82.63
2023-04-29T21:16:14.431Z,85.38
2023-04-29T21:18:41.188Z,85.39
2023-04-29T21:21:08.009Z,84.19
2023-04-29T21:23:36.289Z,84.43
2023-04-29T21:26:03.199Z,87.35
2023-04-29T21:28:29.994Z,85.05
2023-04-29T21:30:57.763Z,84.88
2023-04-29T21:33:24.751Z,84.03
2023-04-29T21:35:51.718Z,81.94
2023-04-29T21:38:18.512Z,80.95
2023-04-29T21:40:47.992Z,83.50
2023-04-29T21:43:16.877Z,81.98
2023-04-29T21:45:44.050Z,80.39
2023-04-29T21:48:14.887Z,79.56
2023-04-29T21:50:42.419Z,80.01
2023-04-29T21:53:09.308Z,80.43
2023-04-29T21:55:36.220Z,81.39
2023-04-29T21:58:04.534Z,83.10
2023-04-29T22:00:31.998Z,79.30
2023-04-29T22:02:59.865Z,80.83
2023-04-29T22:05:26.689Z,82.65
2023-04-29T22:07:53.594Z,83.69
2023-04-29T22:10:20.373Z,85.49
2023-04-29T22:12:47.104Z,84.34
2023-04-29T22:15:27.258Z,86.57
2023-04-29T22:17:54.828Z,90.95
2023-04-29T22:20:21.684Z,91.65
2023-04-29T22:22:48.432Z,89.85
2023-04-29T22:25:15.158Z,87.99
2023-04-29T22:27:41.984Z,85.69
2023-04-29T22:30:09.668Z,85.06
2023-04-29T22:32:38.036Z,85.90
2023-04-29T22:35:05.752Z,85.68
2023-04-29T22:37:32.552Z,85.25
2023-04-29T22:39:59.255Z,85.25
2023-04-29T22:42:26.021Z,84.82
2023-04-29T22:44:52.844Z,86.24
2023-04-29T22:47:19.581Z,85.55
2023-04-29T22:49:47.856Z,86.77
2023-04-29T22:52:14.597Z,85.98
2023-04-29T22:54:41.351Z,84.67
2023-04-29T22:57:08.197Z,84.67
2023-04-29T22:59:34.950Z,88.03
2023-04-29T23:02:01.705Z,84.18
2023-04-29T23:04:28.525Z,85.67
2023-04-29T23:06:56.715Z,84.71
2023-04-29T23:09:23.529Z,85.41
2023-04-29T23:11:50.254Z,86.85
2023-04-29T23:14:17.037Z,84.44
2023-04-29T23:16:43.872Z,85.07
2023-04-29T23:19:10.689Z,86.83
2023-04-29T23:21:37.450Z,85.75
2023-04-29T23:24:06.082Z,86.76
2023-04-29T23:26:32.804Z,83.90
2023-04-29T23:28:59.607Z,84.45
2023-04-29T23:31:26.438Z,83.62
2023-04-29T23:33:53.281Z,80.00
2023-04-29T23:36:20.040Z,83.97
2023-04-29T23:38:46.859Z,82.77
2023-04-29T23:41:14.966Z,83.63
2023-04-29T23:43:41.760Z,85.84
2023-04-29T23:46:08.567Z,83.21
2023-04-29T23:48:35.329Z,81.97
2023-04-29T23:51:02.096Z,82.34
2023-04-29T23:53:28.824Z,83.76
2023-04-29T23:55:55.554Z,87.55
2023-04-29T23:58:23.688Z,87.23
